Time;durP1;ratioP1;P1;durP2;ratioP2;P2;SDS_P1;SDS_P2;PMS_P1;PMS_P2;Temp;Humidity;BMP_temperature;BMP_pressure;BME280_temperature;BME280_humidity;BME280_pressure;Samples;Min_cycle;Max_cycle;Signal;HPM_P1;HPM_P2
2022/04/13 00:00:46;;;;;;;0.80;0.80;;;5.60;99.90;;;;;;5093879;28;20457;-88
2022/04/13 00:03:12;;;;;;;1.20;1.10;;;5.50;99.90;;;;;;5093690;28;20029;-88
2022/04/13 00:05:38;;;;;;;0.95;0.95;;;5.50;99.90;;;;;;5093709;28;20111;-86
2022/04/13 00:08:06;;;;;;;1.92;1.13;;;5.40;99.90;;;;;;5095149;28;20447;-87
2022/04/13 00:10:36;;;;;;;1.52;1.42;;;5.40;99.90;;;;;;5093741;28;20372;-87
2022/04/13 00:13:02;;;;;;;2.30;1.40;;;5.40;99.90;;;;;;5095145;28;20099;-86
2022/04/13 00:15:28;;;;;;;1.85;1.27;;;5.40;99.90;;;;;;5094756;28;20024;-87
2022/04/13 00:17:54;;;;;;;1.42;1.25;;;5.40;99.90;;;;;;5093893;28;20057;-88
2022/04/13 00:20:21;;;;;;;2.70;1.50;;;5.40;99.90;;;;;;5094826;28;20051;-86
2022/04/13 00:22:47;;;;;;;2.20;1.10;;;5.40;99.90;;;;;;5093510;28;20028;-87
2022/04/13 00:25:13;;;;;;;1.60;1.27;;;5.30;99.90;;;;;;5094676;28;20073;-88
2022/04/13 00:27:39;;;;;;;1.25;0.93;;;5.40;99.90;;;;;;5093729;28;20485;-89
2022/04/13 00:30:05;;;;;;;1.40;1.30;;;5.30;99.90;;;;;;5093556;28;20031;-88
2022/04/13 00:32:33;;;;;;;2.42;1.42;;;5.30;99.90;;;;;;5094885;28;20020;-84
2022/04/13 00:35:02;;;;;;;1.20;1.10;;;5.30;99.90;;;;;;5094542;28;20407;-86
2022/04/13 00:37:28;;;;;;;0.80;0.80;;;5.30;99.90;;;;;;5094384;28;20021;-85
2022/04/13 00:39:54;;;;;;;1.13;0.90;;;5.30;99.90;;;;;;5092981;28;20028;-86
2022/04/13 00:42:20;;;;;;;1.02;1.02;;;5.30;99.90;;;;;;5092882;28;20139;-84
2022/04/13 00:44:47;;;;;;;1.33;1.10;;;5.30;99.90;;;;;;5094352;28;20028;-84
2022/04/13 00:47:14;;;;;;;1.33;1.05;;;5.30;99.90;;;;;;5093211;28;20111;-84
2022/04/13 00:49:40;;;;;;;0.90;0.88;;;5.30;99.90;;;;;;5093265;28;20073;-85
2022/04/13 00:52:07;;;;;;;1.08;0.90;;;5.20;99.90;;;;;;5093043;28;20544;-86
2022/04/13 00:54:34;;;;;;;2.40;1.05;;;5.40;99.90;;;;;;5093055;28;20052;-84
2022/04/13 00:57:11;;;;;;;1.35;1.13;;;5.40;99.90;;;;;;5094235;28;20028;-83
2022/04/13 00:59:39;;;;;;;1.98;0.88;;;5.30;99.90;;;;;;5093168;28;20024;-86
2022/04/13 01:02:07;;;;;;;1.25;1.15;;;5.30;99.90;;;;;;5092923;28;20050;-85
2022/04/13 01:04:35;;;;;;;0.95;0.93;;;5.20;99.90;;;;;;5095791;28;20020;-85
2022/04/13 01:07:02;;;;;;;1.10;1.00;;;5.30;99.90;;;;;;5097445;28;20467;-84
2022/04/13 01:09:30;;;;;;;1.60;1.23;;;5.20;99.90;;;;;;5096883;28;20073;-85
2022/04/13 01:11:55;;;;;;;0.88;0.85;;;5.30;99.90;;;;;;5096829;28;20161;-85
2022/04/13 01:14:21;;;;;;;1.10;1.00;;;5.30;99.90;;;;;;5097041;28;20480;-85
2022/04/13 01:16:47;;;;;;;1.60;1.38;;;5.30;99.90;;;;;;5098108;28;20024;-84
2022/04/13 01:19:16;;;;;;;1.00;0.90;;;5.20;99.90;;;;;;5098023;28;20107;-85
2022/04/13 01:21:53;;;;;;;1.15;1.05;;;5.20;99.90;;;;;;5096773;28;20417;-86
2022/04/13 01:24:21;;;;;;;1.25;1.13;;;5.30;99.90;;;;;;5096888;28;20024;-85
2022/04/13 01:26:47;;;;;;;1.23;1.00;;;5.20;99.90;;;;;;5098061;28;20052;-85
2022/04/13 01:29:13;;;;;;;1.40;0.85;;;5.20;99.90;;;;;;5096424;28;20024;-85
2022/04/13 01:31:40;;;;;;;2.45;1.30;;;5.30;99.90;;;;;;5096667;28;20020;-85
2022/04/13 01:34:07;;;;;;;1.77;1.38;;;5.30;99.90;;;;;;5097608;28;20029;-86
2022/04/13 01:36:34;;;;;;;0.90;0.90;;;5.20;99.90;;;;;;5096582;28;20021;-86
2022/04/13 01:39:01;;;;;;;1.67;1.08;;;5.30;99.90;;;;;;5096399;28;20016;-85
2022/04/13 01:41:27;;;;;;;1.02;0.93;;;5.30;99.90;;;;;;5095941;28;20111;-83
2022/04/13 01:43:53;;;;;;;1.17;1.08;;;5.30;99.90;;;;;;5095916;28;20107;-83
2022/04/13 01:46:18;;;;;;;1.25;1.08;;;5.30;99.90;;;;;;5096130;28;20115;-85
2022/04/13 01:48:44;;;;;;;1.38;1.00;;;5.20;99.90;;;;;;5096131;28;20016;-86
2022/04/13 01:51:10;;;;;;;1.23;1.13;;;5.30;99.90;;;;;;5096407;28;20020;-85
2022/04/13 01:53:36;;;;;;;1.27;1.17;;;5.30;99.90;;;;;;5097263;28;20507;-87
2022/04/13 01:56:02;;;;;;;1.23;1.13;;;5.30;99.90;;;;;;5096194;28;20028;-86
2022/04/13 01:58:28;;;;;;;1.60;1.50;;;5.30;99.90;;;;;;5096056;28;20055;-82
2022/04/13 02:00:54;;;;;;;1.00;0.88;;;5.30;99.90;;;;;;5095984;28;20035;-87
2022/04/13 02:03:27;;;;;;;1.10;1.10;;;5.30;99.90;;;;;;5095925;28;20024;-81
2022/04/13 02:05:54;;;;;;;3.42;1.33;;;5.30;99.90;;;;;;5096248;28;20478;-86
2022/04/13 02:08:23;;;;;;;1.55;1.30;;;5.20;99.90;;;;;;5096047;28;20383;-86
2022/04/13 02:10:50;;;;;;;1.35;1.25;;;5.20;99.90;;;;;;5096073;28;20406;-86
2022/04/13 02:13:16;;;;;;;1.27;1.20;;;5.20;99.90;;;;;;5095824;28;20055;-86
2022/04/13 02:15:42;;;;;;;1.75;1.10;;;5.20;99.90;;;;;;5095158;28;20039;-86
2022/04/13 02:18:07;;;;;;;1.17;0.98;;;5.30;99.90;;;;;;5095563;28;20024;-85
2022/04/13 02:20:34;;;;;;;1.15;0.95;;;5.20;99.90;;;;;;5095702;28;20107;-82
2022/04/13 02:23:01;;;;;;;1.20;1.10;;;5.20;99.90;;;;;;5096237;28;20370;-84
2022/04/13 02:25:27;;;;;;;0.98;0.90;;;5.10;99.90;;;;;;5096546;28;20048;-85
2022/04/13 02:27:53;;;;;;;1.33;1.23;;;5.10;99.90;;;;;;5095100;28;20074;-83
2022/04/13 02:30:19;;;;;;;1.13;1.05;;;5.10;99.90;;;;;;5095271;28;20046;-83
2022/04/13 02:32:45;;;;;;;1.20;1.10;;;5.10;99.90;;;;;;5096316;28;20028;-83
2022/04/13 02:35:12;;;;;;;1.08;1.08;;;5.10;99.90;;;;;;5096434;28;20031;-84
2022/04/13 02:37:38;;;;;;;1.02;0.88;;;5.10;99.90;;;;;;5096261;28;20027;-84
2022/04/13 02:40:08;;;;;;;3.15;1.10;;;5.10;99.90;;;;;;5096583;28;20417;-83
2022/04/13 02:42:35;;;;;;;1.03;1.03;;;5.00;99.90;;;;;;5094685;28;20078;-86
2022/04/13 02:45:02;;;;;;;1.30;1.20;;;5.00;99.90;;;;;;5094737;28;20063;-86
2022/04/13 02:47:28;;;;;;;1.77;1.20;;;5.00;99.90;;;;;;5095137;28;20024;-84
2022/04/13 02:49:57;;;;;;;1.17;1.08;;;5.10;99.90;;;;;;5094735;28;20035;-85
2022/04/13 02:52:28;;;;;;;2.10;1.23;;;5.10;99.90;;;;;;5096032;28;20039;-84
2022/04/13 02:54:57;;;;;;;0.88;0.80;;;5.00;99.90;;;;;;5094692;28;20378;-84
2022/04/13 02:57:23;;;;;;;1.98;1.30;;;5.00;99.90;;;;;;5094764;28;20048;-83
2022/04/13 02:59:49;;;;;;;1.15;1.08;;;5.00;99.90;;;;;;5094907;28;20132;-86
2022/04/13 03:02:19;;;;;;;1.17;1.08;;;5.00;99.90;;;;;;5094526;28;20046;-85
2022/04/13 03:04:46;;;;;;;1.37;1.27;;;5.00;99.90;;;;;;5094536;28;20523;-84
2022/04/13 03:07:14;;;;;;;2.58;1.40;;;5.00;99.90;;;;;;5094688;28;20034;-85
2022/04/13 03:09:40;;;;;;;3.35;1.48;;;5.00;99.90;;;;;;5094245;28;20024;-82
2022/04/13 03:12:07;;;;;;;0.82;0.82;;;4.90;99.90;;;;;;5094070;28;20047;-82
2022/04/13 03:14:33;;;;;;;1.08;1.02;;;4.90;99.90;;;;;;5094328;28;20420;-83
2022/04/13 03:16:59;;;;;;;1.10;1.00;;;4.90;99.90;;;;;;5095428;28;20028;-84
2022/04/13 03:19:25;;;;;;;1.40;1.30;;;5.00;99.90;;;;;;5094412;28;20031;-82
2022/04/13 03:21:53;;;;;;;1.88;1.27;;;5.00;99.90;;;;;;5093842;28;20076;-84
2022/04/13 03:24:19;;;;;;;1.02;1.00;;;5.00;99.90;;;;;;5095253;28;20463;-86
2022/04/13 03:26:45;;;;;;;1.60;1.23;;;5.00;99.90;;;;;;5093118;28;20119;-87
2022/04/13 03:29:11;;;;;;;2.35;1.10;;;5.10;99.90;;;;;;5095285;28;20496;-85
2022/04/13 03:31:37;;;;;;;1.45;1.35;;;5.10;99.90;;;;;;5094124;28;20031;-83
2022/04/13 03:34:02;;;;;;;6.72;1.60;;;5.00;99.90;;;;;;5094113;28;20027;-84
2022/04/13 03:36:28;;;;;;;0.80;0.80;;;5.00;99.90;;;;;;5093287;28;20494;-85
2022/04/13 03:38:54;;;;;;;1.10;1.00;;;5.10;99.90;;;;;;5094504;28;20024;-83
2022/04/13 03:41:20;;;;;;;1.60;1.27;;;5.00;99.90;;;;;;5093848;28;20020;-85
2022/04/13 03:43:45;;;;;;;1.73;1.20;;;4.90;99.90;;;;;;5095020;28;20084;-83
2022/04/13 03:46:11;;;;;;;2.75;1.30;;;5.00;99.90;;;;;;5093793;28;20028;-85
2022/04/13 03:48:37;;;;;;;1.02;1.00;;;4.90;99.90;;;;;;5095263;28;20024;-83
2022/04/13 03:51:03;;;;;;;1.45;1.00;;;5.00;99.90;;;;;;5094466;28;20484;-82
2022/04/13 03:53:29;;;;;;;1.83;1.00;;;5.00;99.90;;;;;;5094947;28;20026;-83
2022/04/13 03:55:55;;;;;;;1.08;0.98;;;4.90;99.90;;;;;;5093729;28;20111;-85
2022/04/13 03:58:21;;;;;;;1.35;1.25;;;5.00;99.90;;;;;;5093704;28;20024;-83
2022/04/13 04:00:46;;;;;;;1.48;1.30;;;5.00;99.90;;;;;;5094705;28;20024;-87
2022/04/13 04:03:12;;;;;;;0.90;0.90;;;5.00;99.90;;;;;;5094337;28;20020;-84
2022/04/13 04:05:38;;;;;;;0.93;0.93;;;5.10;99.90;;;;;;5095190;28;20463;-87
2022/04/13 04:08:04;;;;;;;2.55;1.10;;;5.00;99.90;;;;;;5093684;28;20031;-84
2022/04/13 04:10:30;;;;;;;1.90;1.20;;;5.00;99.90;;;;;;5093483;28;20031;-86
2022/04/13 04:12:56;;;;;;;1.35;1.02;;;5.00;99.90;;;;;;5093063;28;20028;-84
2022/04/13 04:15:22;;;;;;;1.40;1.30;;;4.90;99.90;;;;;;5094597;28;20036;-83
2022/04/13 04:17:48;;;;;;;1.95;1.05;;;5.00;99.90;;;;;;5094465;28;20429;-86
2022/04/13 04:20:13;;;;;;;0.90;0.90;;;5.10;99.90;;;;;;5094065;28;20540;-83
2022/04/13 04:22:39;;;;;;;1.65;1.23;;;5.00;99.90;;;;;;5093116;28;20032;-83
2022/04/13 04:25:07;;;;;;;2.22;1.00;;;5.00;99.90;;;;;;5093226;28;20047;-85
2022/04/13 04:27:33;;;;;;;2.05;1.00;;;5.10;99.90;;;;;;5093337;28;20423;-87
2022/04/13 04:29:59;;;;;;;1.00;1.00;;;5.10;99.90;;;;;;5093455;28;20115;-87
2022/04/13 04:32:25;;;;;;;1.77;0.70;;;5.10;99.90;;;;;;5094599;28;20363;-85
2022/04/13 04:34:51;;;;;;;1.20;1.10;;;5.10;99.90;;;;;;5092920;28;20024;-84
2022/04/13 04:37:17;;;;;;;1.27;1.00;;;5.00;99.90;;;;;;5092732;28;20169;-84
2022/04/13 04:39:42;;;;;;;4.70;3.38;;;5.10;99.90;;;;;;5091559;28;20028;-86
2022/04/13 04:42:08;;;;;;;1.40;1.27;;;5.00;99.90;;;;;;5092860;28;20119;-86
2022/04/13 04:44:34;;;;;;;2.00;1.15;;;5.10;99.90;;;;;;5092385;28;20020;-85
2022/04/13 04:47:00;;;;;;;1.20;1.10;;;5.20;99.90;;;;;;5091662;28;20016;-87
2022/04/13 04:49:25;;;;;;;1.42;1.05;;;5.10;99.90;;;;;;5092792;28;20028;-87
2022/04/13 04:51:51;;;;;;;1.50;1.00;;;5.10;99.90;;;;;;5093444;28;20028;-85
2022/04/13 04:54:17;;;;;;;2.95;1.00;;;5.20;99.90;;;;;;5093153;28;20417;-86
2022/04/13 04:56:42;;;;;;;1.23;1.10;;;5.20;99.90;;;;;;5092956;28;20024;-86
2022/04/13 04:59:08;;;;;;;1.10;0.98;;;5.20;99.90;;;;;;5094152;28;20069;-85
2022/04/13 05:01:34;;;;;;;1.13;1.02;;;5.20;99.90;;;;;;5094059;28;20116;-86
2022/04/13 05:04:00;;;;;;;1.33;1.23;;;5.20;99.90;;;;;;5094126;28;20413;-86
2022/04/13 05:06:29;;;;;;;3.00;1.30;;;5.20;99.90;;;;;;5094108;28;20152;-87
2022/04/13 05:08:55;;;;;;;1.00;1.00;;;5.20;99.90;;;;;;5092562;28;20027;-85
2022/04/13 05:11:22;;;;;;;1.33;1.00;;;5.20;99.90;;;;;;5093185;28;20570;-87
2022/04/13 05:13:48;;;;;;;1.20;1.10;;;5.20;99.90;;;;;;5093053;28;20085;-87
2022/04/13 05:16:15;;;;;;;1.30;1.08;;;5.30;99.90;;;;;;5093994;28;20036;-87
2022/04/13 05:18:42;;;;;;;1.50;1.40;;;5.30;99.90;;;;;;5093110;28;20024;-87
2022/04/13 05:21:08;;;;;;;1.02;1.02;;;5.30;99.90;;;;;;5092808;28;20024;-87
2022/04/13 05:23:36;;;;;;;2.22;1.10;;;5.30;99.90;;;;;;5092951;28;20487;-86
2022/04/13 05:26:02;;;;;;;1.20;1.10;;;5.40;99.90;;;;;;5092936;28;20024;-85
2022/04/13 05:28:29;;;;;;;1.52;1.25;;;5.40;99.90;;;;;;5092786;28;20024;-86
2022/04/13 05:30:55;;;;;;;1.52;1.42;;;5.30;99.90;;;;;;5092901;28;20064;-83
2022/04/13 05:33:22;;;;;;;1.77;1.30;;;5.20;99.90;;;;;;5092740;28;20032;-86
2022/04/13 05:35:47;;;;;;;1.08;0.93;;;5.30;99.90;;;;;;5092476;28;20497;-88
2022/04/13 05:38:13;;;;;;;1.63;1.38;;;5.40;99.90;;;;;;5094084;28;20027;-88
2022/04/13 05:40:39;;;;;;;2.35;1.38;;;5.30;99.90;;;;;;5092858;28;20032;-83
2022/04/13 05:43:05;;;;;;;1.30;1.20;;;5.30;99.90;;;;;;5092309;28;20046;-85
2022/04/13 05:45:30;;;;;;;1.70;1.40;;;5.30;99.90;;;;;;5092847;28;20467;-85
2022/04/13 05:47:57;;;;;;;6.03;2.90;;;5.40;99.90;;;;;;5092484;28;20077;-87
2022/04/13 05:50:23;;;;;;;2.05;1.83;;;5.30;99.90;;;;;;5094647;28;20077;-83
2022/04/13 05:52:49;;;;;;;9.15;6.20;;;5.40;99.90;;;;;;5096178;28;20382;-85
2022/04/13 05:55:15;;;;;;;3.33;3.03;;;5.40;99.90;;;;;;5097339;28;20077;-87
2022/04/13 05:57:41;;;;;;;2.55;2.17;;;5.50;99.90;;;;;;5096233;28;20055;-87
2022/04/13 06:00:10;;;;;;;2.13;1.92;;;5.50;99.90;;;;;;5096609;28;20145;-89
2022/04/13 06:02:36;;;;;;;3.97;1.67;;;5.40;99.90;;;;;;5095969;28;20031;-87
2022/04/13 06:05:03;;;;;;;2.47;2.05;;;5.40;99.90;;;;;;5096046;28;20077;-87
2022/04/13 06:07:29;;;;;;;1.52;1.35;;;5.20;99.90;;;;;;5096995;28;20019;-85
2022/04/13 06:09:55;;;;;;;4.70;2.53;;;5.20;99.90;;;;;;5095933;28;20475;-89
2022/04/13 06:12:22;;;;;;;3.45;2.10;;;5.00;99.90;;;;;;5095894;28;20356;-86
2022/04/13 06:14:48;;;;;;;3.03;2.20;;;4.80;99.90;;;;;;5095764;28;20105;-89
2022/04/13 06:17:14;;;;;;;4.55;3.10;;;4.70;99.90;;;;;;5097047;28;20054;-87
2022/04/13 06:19:40;;;;;;;5.28;3.40;;;4.60;99.90;;;;;;5095913;28;20032;-87
2022/04/13 06:22:05;;;;;;;4.75;2.50;;;4.60;99.90;;;;;;5095554;28;20032;-88
2022/04/13 06:24:31;;;;;;;6.65;3.50;;;4.60;99.90;;;;;;5095912;28;20463;-88
2022/04/13 06:26:57;;;;;;;6.50;5.60;;;4.50;99.90;;;;;;5095642;28;20032;-89
2022/04/13 06:29:23;;;;;;;20.98;12.80;;;4.40;99.90;;;;;;5095718;28;20028;-89
2022/04/13 06:31:49;;;;;;;9.60;7.18;;;4.40;99.90;;;;;;5095503;28;20081;-87
2022/04/13 06:34:16;;;;;;;7.07;4.72;;;4.40;99.90;;;;;;5095668;28;20094;-88
2022/04/13 06:36:42;;;;;;;8.65;4.43;;;4.40;99.90;;;;;;5096468;28;20016;-86
2022/04/13 06:39:08;;;;;;;12.02;6.45;;;4.50;99.90;;;;;;5095591;28;20032;-87
2022/04/13 06:41:34;;;;;;;13.75;6.53;;;4.50;99.90;;;;;;5095294;28;20123;-86
2022/04/13 06:43:59;;;;;;;31.33;23.90;;;4.50;99.90;;;;;;5095446;28;20021;-89
2022/04/13 06:46:25;;;;;;;10.65;5.45;;;4.60;99.90;;;;;;5095494;28;20032;-89
2022/04/13 06:48:51;;;;;;;8.13;5.10;;;4.50;99.90;;;;;;5095558;28;20076;-91
2022/04/13 06:51:17;;;;;;;7.03;3.88;;;4.50;99.90;;;;;;5095162;28;20024;-89
2022/04/13 06:53:43;;;;;;;8.57;4.07;;;4.40;99.90;;;;;;5095213;28;20478;-87
2022/04/13 06:56:09;;;;;;;8.60;4.55;;;4.50;99.90;;;;;;5095106;28;20081;-85
2022/04/13 06:58:34;;;;;;;9.25;4.35;;;4.40;99.90;;;;;;5095081;28;20028;-89
2022/04/13 07:01:00;;;;;;;9.02;5.45;;;4.50;99.90;;;;;;5094959;28;20458;-88
2022/04/13 07:03:26;;;;;;;14.25;9.50;;;4.50;99.90;;;;;;5096099;28;20074;-90
2022/04/13 07:05:52;;;;;;;8.00;4.40;;;4.60;99.90;;;;;;5094975;28;20028;-86
2022/04/13 07:08:18;;;;;;;13.52;9.85;;;4.60;99.90;;;;;;5095105;28;20107;-90
2022/04/13 07:10:44;;;;;;;9.98;6.28;;;4.60;99.90;;;;;;5095222;28;20024;-90
2022/04/13 07:13:14;;;;;;;5.65;4.28;;;4.60;99.90;;;;;;5094761;28;20080;-91
2022/04/13 07:15:40;;;;;;;7.05;4.60;;;4.60;99.90;;;;;;5094769;28;20027;-91
2022/04/13 07:18:07;;;;;;;10.40;5.68;;;4.60;99.90;;;;;;5095017;28;20509;-87
2022/04/13 07:20:32;;;;;;;9.77;5.57;;;4.60;99.90;;;;;;5095034;28;20035;-90
2022/04/13 07:22:58;;;;;;;7.95;4.35;;;4.60;99.90;;;;;;5095773;28;20087;-89
2022/04/13 07:25:24;;;;;;;9.43;4.45;;;4.70;99.90;;;;;;5095380;28;20024;-90
2022/04/13 07:27:50;;;;;;;7.60;3.72;;;4.70;99.90;;;;;;5095263;28;20114;-90
2022/04/13 07:30:16;;;;;;;11.32;6.50;;;4.70;99.90;;;;;;5094869;28;20120;-87
2022/04/13 07:32:46;;;;;;;7.75;4.88;;;4.80;99.90;;;;;;5094616;28;20028;-89
2022/04/13 07:35:13;;;;;;;7.40;4.00;;;4.70;99.90;;;;;;5094513;28;20046;-90
2022/04/13 07:37:40;;;;;;;10.48;4.47;;;4.70;99.90;;;;;;5094470;28;20032;-90
2022/04/13 07:40:09;;;;;;;7.32;4.75;;;4.70;99.90;;;;;;5094569;28;20028;-89
2022/04/13 07:42:35;;;;;;;8.38;3.97;;;4.80;99.90;;;;;;5094292;28;20105;-91
2022/04/13 07:45:03;;;;;;;6.03;3.72;;;4.80;99.90;;;;;;5095869;28;20024;-91
2022/04/13 07:47:29;;;;;;;8.65;4.22;;;4.80;99.90;;;;;;5094481;28;20020;-88
2022/04/13 07:49:54;;;;;;;6.75;3.70;;;4.80;99.90;;;;;;5096500;28;20024;-94
2022/04/13 07:52:20;;;;;;;6.72;3.20;;;4.80;99.90;;;;;;5098086;28;20038;-92
2022/04/13 07:54:46;;;;;;;9.30;3.60;;;4.80;99.90;;;;;;5094266;28;20499;-94
2022/04/13 07:57:13;;;;;;;6.50;3.60;;;4.70;99.90;;;;;;5094101;28;20364;-95
2022/04/13 07:59:40;;;;;;;8.80;3.55;;;4.60;99.90;;;;;;5094338;28;20024;-94
2022/04/13 08:02:07;;;;;;;7.25;4.20;;;4.70;99.90;;;;;;5097303;28;20051;-94
2022/04/13 08:04:35;;;;;;;7.10;4.78;;;4.70;99.90;;;;;;5098164;28;20020;-96
2022/04/13 08:07:02;;;;;;;8.93;3.33;;;4.70;99.90;;;;;;5097510;28;20513;-95
2022/04/13 08:09:28;;;;;;;7.50;3.80;;;4.70;99.90;;;;;;5098793;28;20071;-95
2022/04/13 08:11:53;;;;;;;4.68;3.53;;;4.70;99.90;;;;;;5096693;28;20031;-94
2022/04/13 08:14:20;;;;;;;8.75;3.60;;;4.70;99.90;;;;;;5095099;28;20016;-95
2022/04/13 08:16:46;;;;;;;6.25;3.53;;;4.70;99.90;;;;;;5094449;28;20081;-95
2022/04/13 08:19:21;;;;;;;8.82;4.28;;;4.70;99.90;;;;;;5101221;28;20024;-95
2022/04/13 08:21:50;;;;;;;5.35;3.90;;;4.70;99.90;;;;;;5102253;28;20467;-96
2022/04/13 08:24:18;;;;;;;5.65;2.83;;;4.80;99.90;;;;;;5099212;28;20498;-96
2022/04/13 08:26:45;;;;;;;4.00;3.08;;;4.80;99.90;;;;;;5098460;28;20046;-95
2022/04/13 08:29:11;;;;;;;4.28;2.85;;;4.80;99.90;;;;;;5097100;28;20020;-90
2022/04/13 08:31:37;;;;;;;4.80;3.08;;;4.80;99.90;;;;;;5095146;28;20486;-93
2022/04/13 08:34:03;;;;;;;5.03;3.20;;;4.80;99.90;;;;;;5093985;28;20071;-91
2022/04/13 08:36:29;;;;;;;8.23;4.28;;;4.80;99.90;;;;;;5093671;28;20035;-86
2022/04/13 08:38:55;;;;;;;3.97;3.15;;;4.90;99.90;;;;;;5093527;28;20406;-88
2022/04/13 08:41:40;;;;;;;11.18;6.40;;;4.90;99.90;;;;;;5093523;28;20024;-90
2022/04/13 08:44:15;;;;;;;7.97;4.68;;;4.90;99.90;;;;;;5093453;28;20035;-86
2022/04/13 08:46:43;;;;;;;4.07;3.28;;;4.90;99.90;;;;;;5093448;28;20020;-87
2022/04/13 08:49:10;;;;;;;6.43;3.88;;;5.00;99.90;;;;;;5093551;28;20379;-91
2022/04/13 08:51:38;;;;;;;6.68;3.67;;;4.90;99.90;;;;;;5093992;28;20032;-90
2022/04/13 08:54:19;;;;;;;6.72;3.92;;;4.90;99.90;;;;;;5098153;28;20028;-95
2022/04/13 08:56:48;;;;;;;8.35;4.28;;;4.90;99.90;;;;;;5095376;28;20027;-88
2022/04/13 08:59:44;;;;;;;7.03;4.28;;;5.00;99.90;;;;;;5093959;28;20084;-95
2022/04/13 09:02:35;;;;;;;6.13;3.88;;;5.00;99.90;;;;;;5094273;28;20056;-92
2022/04/13 09:05:01;;;;;;;6.43;3.75;;;5.00;99.90;;;;;;5094619;28;20027;-88
2022/04/13 09:07:31;;;;;;;7.70;4.25;;;4.90;99.90;;;;;;5093253;28;20081;-91
2022/04/13 09:10:00;;;;;;;7.30;3.80;;;4.90;99.90;;;;;;5093558;28;20020;-90
2022/04/13 09:12:30;;;;;;;5.88;3.72;;;4.80;99.90;;;;;;5094115;28;20095;-95
2022/04/13 09:15:04;;;;;;;4.55;3.70;;;4.90;99.90;;;;;;5095066;28;20028;-94
2022/04/13 09:17:30;;;;;;;8.02;4.28;;;4.80;99.90;;;;;;5098115;28;20123;-92
2022/04/13 09:20:02;;;;;;;4.70;3.50;;;4.90;99.90;;;;;;5093772;28;20032;-91
2022/04/13 09:22:31;;;;;;;5.75;3.20;;;4.80;99.90;;;;;;5093273;28;20036;-93
2022/04/13 09:25:00;;;;;;;6.55;4.03;;;4.90;99.90;;;;;;5094829;28;20073;-90
2022/04/13 09:27:26;;;;;;;4.00;3.22;;;4.90;99.90;;;;;;5096972;28;20031;-91
2022/04/13 09:29:52;;;;;;;4.43;3.42;;;4.80;99.90;;;;;;5096994;28;20024;-92
2022/04/13 09:32:18;;;;;;;5.40;3.28;;;4.80;99.90;;;;;;5096903;28;20028;-91
2022/04/13 09:34:44;;;;;;;6.20;4.00;;;4.90;99.90;;;;;;5096574;28;20028;-94
2022/04/13 09:37:10;;;;;;;7.43;4.47;;;4.90;99.90;;;;;;5096634;28;20027;-92
2022/04/13 09:39:37;;;;;;;5.85;4.68;;;4.90;99.90;;;;;;5097734;28;20024;-93
2022/04/13 09:42:04;;;;;;;4.75;3.40;;;5.00;99.90;;;;;;5097838;28;20048;-95
2022/04/13 09:44:33;;;;;;;5.75;3.58;;;5.00;99.90;;;;;;5098503;28;20538;-96
2022/04/13 09:47:06;;;;;;;4.93;3.38;;;4.90;99.90;;;;;;5098625;28;20020;-95
2022/04/13 09:49:32;;;;;;;3.63;3.20;;;4.90;99.90;;;;;;5087528;28;20024;-96
2022/04/13 09:52:07;;;;;;;4.38;3.40;;;5.00;99.90;;;;;;5104200;28;20074;-94
2022/04/13 09:54:45;;;;;;;7.88;5.18;;;5.00;99.90;;;;;;5099989;28;20023;-94
2022/04/13 09:57:25;;;;;;;5.32;3.78;;;5.00;99.90;;;;;;5100074;28;20016;-94
2022/04/13 09:59:56;;;;;;;5.43;4.55;;;5.00;99.90;;;;;;5101146;28;20020;-96
2022/04/13 10:02:59;;;;;;;6.50;4.80;;;5.10;99.90;;;;;;5100283;28;20060;-94
2022/04/13 10:05:33;;;;;;;7.85;4.43;;;5.10;99.90;;;;;;5095235;28;20036;-96
2022/04/13 10:08:22;;;;;;;4.47;4.07;;;5.20;99.90;;;;;;5102744;28;20020;-96
2022/04/13 10:10:49;;;;;;;4.05;3.63;;;5.20;99.90;;;;;;5104129;28;20040;-96
2022/04/13 10:13:34;;;;;;;4.35;3.35;;;5.20;99.90;;;;;;5107968;28;20504;-96
2022/04/13 10:16:12;;;;;;;4.13;3.67;;;5.40;99.90;;;;;;5109383;28;20097;-96
2022/04/13 10:19:07;;;;;;;5.43;3.15;;;5.50;99.90;;;;;;5092552;28;20032;-96
2022/04/13 10:21:51;;;;;;;5.55;3.30;;;5.50;99.90;;;;;;5097145;28;20032;-94
2022/04/13 10:24:23;;;;;;;2.70;2.50;;;5.60;99.90;;;;;;5097379;28;20062;-94
2022/04/13 10:27:12;;;;;;;3.55;3.03;;;5.70;99.90;;;;;;5097409;28;20024;-96
2022/04/13 10:29:41;;;;;;;3.72;3.30;;;5.70;99.90;;;;;;5098808;28;20049;-96
2022/04/13 10:32:23;;;;;;;4.60;3.10;;;5.90;99.90;;;;;;5099239;28;20024;-92
2022/04/13 10:34:51;;;;;;;3.10;2.58;;;5.80;99.90;;;;;;5097370;28;20024;-96
2022/04/13 10:37:23;;;;;;;2.90;2.60;;;5.80;99.90;;;;;;5107202;28;20488;-96
2022/04/13 10:40:00;;;;;;;3.53;2.83;;;5.80;99.90;;;;;;5103113;28;20027;-96
2022/04/13 10:45:31;;;;;;;3.83;2.95;;;5.80;99.90;;;;;;5101581;28;20036;-96
2022/04/13 10:48:06;;;;;;;4.63;2.97;;;6.00;99.90;;;;;;5099205;28;20028;-93
2022/04/13 10:50:54;;;;;;;5.05;3.67;;;6.00;99.90;;;;;;5096519;28;20020;-96
2022/04/13 10:53:24;;;;;;;3.95;2.90;;;6.00;99.90;;;;;;5097334;28;20050;-96
2022/04/13 10:56:11;;;;;;;3.30;3.00;;;6.00;99.90;;;;;;5098566;28;20089;-89
2022/04/13 10:59:03;;;;;;;4.22;3.22;;;6.20;99.90;;;;;;5096169;28;20027;-95
2022/04/13 11:01:44;;;;;;;3.65;3.05;;;6.20;99.90;;;;;;5097291;28;20035;-96
2022/04/13 11:04:11;;;;;;;3.20;2.90;;;6.20;99.90;;;;;;5095831;28;20119;-95
2022/04/13 11:06:39;;;;;;;3.70;3.00;;;6.30;99.90;;;;;;5096685;28;20042;-96
2022/04/13 11:09:21;;;;;;;3.38;3.03;;;6.30;99.90;;;;;;5096152;28;20126;-92
2022/04/13 11:11:48;;;;;;;5.00;3.30;;;6.40;99.90;;;;;;5096312;28;20504;-96
2022/04/13 11:14:22;;;;;;;2.85;2.60;;;6.60;99.90;;;;;;5095384;28;20024;-96
2022/04/13 11:17:15;;;;;;;2.70;2.50;;;6.50;99.90;;;;;;5096506;28;20108;-94
2022/04/13 11:19:42;;;;;;;2.92;2.60;;;6.50;99.90;;;;;;5083769;28;20491;-96
2022/04/13 11:22:10;;;;;;;2.80;2.60;;;6.50;99.90;;;;;;5095655;28;20035;-95
2022/04/13 11:24:42;;;;;;;4.63;2.72;;;6.50;99.90;;;;;;5094951;28;20024;-95
2022/04/13 11:27:09;;;;;;;4.15;3.20;;;6.50;99.90;;;;;;5094839;28;20052;-93
2022/04/13 11:29:56;;;;;;;3.95;3.10;;;6.50;99.90;;;;;;5094812;28;20028;-89
2022/04/13 11:32:42;;;;;;;3.53;2.92;;;6.50;99.90;;;;;;5094928;28;20574;-95
2022/04/13 11:35:23;;;;;;;3.55;3.03;;;6.40;99.90;;;;;;5095009;28;20389;-91
2022/04/13 11:38:01;;;;;;;;;;;6.50;99.90;;;;;;5094821;28;20033;-92
2022/04/13 11:40:27;;;;;;;4.63;3.40;;;6.50;99.90;;;;;;5094727;28;19911;-92
2022/04/13 11:42:53;;;;;;;4.00;3.13;;;6.50;99.90;;;;;;5094206;28;20052;-91
2022/04/13 11:45:21;;;;;;;5.43;3.45;;;6.50;99.90;;;;;;5094771;28;20054;-87
2022/04/13 11:47:52;;;;;;;4.00;3.25;;;6.50;99.90;;;;;;5093693;28;20049;-89
2022/04/13 11:50:21;;;;;;;5.90;3.42;;;6.50;99.90;;;;;;5094317;28;20024;-93
2022/04/13 11:52:55;;;;;;;4.90;3.60;;;6.60;99.90;;;;;;5094071;28;20367;-92
2022/04/13 11:55:39;;;;;;;5.53;3.45;;;6.60;99.90;;;;;;5094093;28;20467;-90
2022/04/13 11:58:07;;;;;;;5.65;4.25;;;6.60;99.90;;;;;;5094143;28;20030;-90
2022/04/13 12:01:07;;;;;;;5.97;3.75;;;6.60;99.90;;;;;;5094074;28;20024;-90
2022/04/13 12:03:39;;;;;;;6.13;3.45;;;6.70;99.90;;;;;;5094003;28;20038;-91
2022/04/13 12:06:14;;;;;;;5.28;3.47;;;6.60;99.90;;;;;;5094276;28;20382;-88
2022/04/13 12:08:46;;;;;;;5.57;3.35;;;6.70;99.90;;;;;;5094237;28;20020;-90
2022/04/13 12:11:17;;;;;;;5.55;3.60;;;6.50;99.90;;;;;;5093989;28;20047;-93
2022/04/13 12:13:59;;;;;;;7.00;4.30;;;6.50;99.90;;;;;;5093888;28;20133;-91
2022/04/13 12:16:33;;;;;;;5.75;3.83;;;6.60;99.90;;;;;;5093691;28;20039;-89
2022/04/13 12:39:11;;;;;;;8.05;4.00;;;6.60;99.90;;;;;;5094762;28;20031;-91
2022/04/13 12:41:37;;;;;;;7.20;3.92;;;6.60;99.90;;;;;;5093223;28;20077;-89
2022/04/13 12:44:07;;;;;;;7.95;4.35;;;6.60;99.90;;;;;;5093361;28;20028;-94
2022/04/13 12:46:36;;;;;;;11.30;5.15;;;6.60;99.90;;;;;;5092950;28;20031;-92
2022/04/13 12:49:07;;;;;;;7.25;4.10;;;6.60;99.90;;;;;;5093380;28;20024;-93
2022/04/13 12:51:34;;;;;;;;;;;6.60;99.90;;;;;;5093600;28;20382;-89
2022/04/13 13:04:13;;;;;;;9.70;4.53;;;6.50;99.90;;;;;;5098571;28;20152;-88
2022/04/13 13:06:59;;;;;;;10.57;4.75;;;6.60;99.90;;;;;;5097419;28;20537;-87
2022/04/13 13:09:27;;;;;;;13.07;5.40;;;6.70;99.90;;;;;;5097264;28;20020;-88
2022/04/13 13:12:01;;;;;;;12.88;5.07;;;6.70;99.90;;;;;;5097149;28;20077;-84
2022/04/13 13:15:05;;;;;;;10.98;5.20;;;6.80;99.90;;;;;;5097062;28;20052;-87
2022/04/13 13:17:31;;;;;;;11.55;5.30;;;6.80;99.90;;;;;;5097040;28;20024;-88
2022/04/13 13:26:24;;;;;;;10.20;5.70;;;6.70;99.90;;;;;;5098187;28;20485;-89
2022/04/13 13:28:51;;;;;;;13.05;5.82;;;6.80;99.90;;;;;;5096772;28;20028;-86
2022/04/13 13:31:18;;;;;;;12.18;5.70;;;6.80;99.90;;;;;;5096840;28;20032;-87
2022/04/13 13:37:08;;;;;;;8.80;5.45;;;6.80;99.90;;;;;;5097969;28;20090;-90
2022/04/13 13:42:56;;;;;;;12.13;6.20;;;6.90;99.90;;;;;;5097455;28;20059;-88
2022/04/13 13:45:26;;;;;;;12.18;5.57;;;6.90;99.90;;;;;;5097932;28;20028;-91
2022/04/13 13:47:52;;;;;;;12.07;6.07;;;6.80;99.90;;;;;;5079558;28;20114;-85
2022/04/13 13:50:22;;;;;;;10.35;5.50;;;6.80;99.90;;;;;;5097510;28;20091;-88
2022/04/13 13:52:48;;;;;;;11.43;6.03;;;6.90;99.90;;;;;;5096652;28;20039;-86